Time;durP1;ratioP1;P1;durP2;ratioP2;P2;SDS_P1;SDS_P2;PMS_P1;PMS_P2;Temp;Humidity;BMP_temperature;BMP_pressure;BME280_temperature;BME280_humidity;BME280_pressure;Samples;Min_cycle;Max_cycle;Signal;HPM_P1;HPM_P2
2023/09/19 00:02:21;;;;;;;7.93;1.60;;;;;;;;;;5005703;28;87729;-90
2023/09/19 00:05:03;;;;;;;5.65;1.40;;;;;;;;;;4993596;28;87711;-90
2023/09/19 00:07:47;;;;;;;5.10;1.35;;;;;;;;;;5005908;28;89966;-90
2023/09/19 00:13:46;;;;;;;5.95;1.40;;;;;;;;;;5009354;28;87930;-89
2023/09/19 00:16:32;;;;;;;5.97;1.50;;;;;;;;;;5007049;28;88036;-90
2023/09/19 00:19:20;;;;;;;4.70;1.52;;;;;;;;;;5005405;28;87657;-89
2023/09/19 00:21:57;;;;;;;6.10;1.33;;;;;;;;;;5002206;28;88100;-90
2023/09/19 00:24:27;;;;;;;6.13;1.58;;;;;;;;;;5008037;28;88620;-90
2023/09/19 00:26:59;;;;;;;5.43;1.40;;;;;;;;;;4993948;28;87262;-90
2023/09/19 00:29:33;;;;;;;4.15;1.30;;;;;;;;;;5006931;28;87635;-90
2023/09/19 00:32:24;;;;;;;6.07;1.52;;;;;;;;;;5007389;28;88106;-90
2023/09/19 00:35:21;;;;;;;4.47;1.20;;;;;;;;;;5008958;28;88439;-90
2023/09/19 00:38:12;;;;;;;7.00;1.40;;;;;;;;;;5007546;28;88081;-90
2023/09/19 00:41:10;;;;;;;4.53;1.15;;;;;;;;;;5005859;28;88013;-90
2023/09/19 00:43:53;;;;;;;4.88;1.30;;;;;;;;;;5006021;28;87559;-91
2023/09/19 00:46:40;;;;;;;6.28;1.80;;;;;;;;;;5007210;28;87958;-90
2023/09/19 00:49:27;;;;;;;4.80;1.52;;;;;;;;;;5005820;28;88451;-91
2023/09/19 00:52:16;;;;;;;5.43;1.30;;;;;;;;;;5006312;28;88916;-90
2023/09/19 00:55:04;;;;;;;4.57;1.40;;;;;;;;;;5006244;28;87435;-90
2023/09/19 00:57:55;;;;;;;5.57;1.40;;;;;;;;;;5007680;28;87578;-91
2023/09/19 01:00:57;;;;;;;4.45;1.15;;;;;;;;;;5020363;28;87581;-92
2023/09/19 01:04:03;;;;;;;5.95;1.30;;;;;;;;;;4993887;28;88530;-92
2023/09/19 01:06:53;;;;;;;4.78;1.35;;;;;;;;;;4997647;28;90334;-90
2023/09/19 01:09:46;;;;;;;6.47;1.55;;;;;;;;;;5006609;28;88475;-90
2023/09/19 01:13:06;;;;;;;;;;;;;;;;;;;;;
2023/09/19 01:16:12;;;;;;;6.93;1.70;;;;;;;;;;5006251;28;88060;-90
2023/09/19 01:19:39;;;;;;;5.05;1.20;;;;;;;;;;5008125;28;116917;-90
2023/09/19 01:22:55;;;;;;;;;;;;;;;;;;;;;
2023/09/19 01:26:14;;;;;;;4.80;1.70;;;;;;;;;;4980089;28;87174;-91
2023/09/19 01:33:33;;;;;;;5.78;1.45;;;;;;;;;;5002887;28;89600;-90
2023/09/19 01:36:47;;;;;;;7.30;1.40;;;;;;;;;;4999676;28;88562;-89
2023/09/19 01:39:37;;;;;;;7.22;1.40;;;;;;;;;;4980487;28;88273;-87
2023/09/19 01:42:17;;;;;;;6.72;1.60;;;;;;;;;;4988488;28;90370;-88
2023/09/19 01:44:53;;;;;;;6.70;1.80;;;;;;;;;;5005294;28;88598;-87
2023/09/19 01:47:28;;;;;;;8.80;2.05;;;;;;;;;;5005310;28;87922;-88
2023/09/19 01:50:00;;;;;;;7.03;1.95;;;;;;;;;;5004797;28;90448;-87
2023/09/19 01:52:29;;;;;;;;;;;;;;;;;;4988469;28;89615;-89
2023/09/19 01:55:04;;;;;;;11.15;2.22;;;;;;;;;;5024580;28;89454;-88
2023/09/19 01:57:38;;;;;;;9.13;1.90;;;;;;;;;;5004862;28;88279;-90
2023/09/19 02:00:07;;;;;;;7.05;1.80;;;;;;;;;;5004174;28;89381;-89
2023/09/19 02:02:44;;;;;;;6.82;1.85;;;;;;;;;;5003436;28;89725;-90
2023/09/19 02:05:24;;;;;;;8.77;1.77;;;;;;;;;;5003096;28;89763;-90
2023/09/19 02:08:00;;;;;;;9.10;2.17;;;;;;;;;;5005279;28;87641;-89
2023/09/19 02:10:27;;;;;;;9.05;1.92;;;;;;;;;;5004304;28;88480;-90
2023/09/19 02:12:59;;;;;;;;;;;;;;;;;;4987387;28;90445;-91
2023/09/19 02:15:38;;;;;;;7.50;1.70;;;;;;;;;;5005044;28;88175;-92
2023/09/19 02:18:10;;;;;;;8.60;2.00;;;;;;;;;;5007904;28;89299;-92
2023/09/19 02:20:45;;;;;;;7.57;1.90;;;;;;;;;;4994116;28;86977;-92
2023/09/19 02:23:27;;;;;;;11.52;2.08;;;;;;;;;;5004640;28;87763;-93
2023/09/19 02:26:16;;;;;;;10.02;2.10;;;;;;;;;;5005980;28;87970;-92
2023/09/19 02:28:59;;;;;;;8.20;2.40;;;;;;;;;;5002948;28;88543;-91
2023/09/19 02:31:38;;;;;;;8.98;1.90;;;;;;;;;;5004027;28;88540;-92
2023/09/19 02:34:22;;;;;;;6.88;2.00;;;;;;;;;;5001245;28;87638;-91
2023/09/19 02:37:09;;;;;;;9.73;2.20;;;;;;;;;;5005601;28;89267;-92
2023/09/19 02:39:48;;;;;;;10.07;2.08;;;;;;;;;;5005566;28;87884;-90
2023/09/19 02:42:16;;;;;;;11.73;2.20;;;;;;;;;;5004187;28;88815;-89
2023/09/19 02:44:49;;;;;;;;;;;;;;;;;;4994377;28;90593;-90
2023/09/19 02:47:22;;;;;;;9.10;2.03;;;;;;;;;;5005741;28;87580;-89
2023/09/19 02:49:50;;;;;;;9.07;1.88;;;;;;;;;;4987765;28;87989;-89
2023/09/19 02:52:26;;;;;;;11.35;2.13;;;;;;;;;;5005632;28;88006;-89
2023/09/19 02:55:00;;;;;;;8.77;2.05;;;;;;;;;;5003415;28;88832;-89
2023/09/19 02:57:40;;;;;;;9.00;2.17;;;;;;;;;;4987742;28;87797;-91
2023/09/19 03:00:12;;;;;;;11.10;2.35;;;;;;;;;;5003650;28;90026;-90
2023/09/19 03:02:55;;;;;;;8.90;2.08;;;;;;;;;;5006198;28;90420;-91
2023/09/19 03:05:28;;;;;;;9.40;2.05;;;;;;;;;;5003367;28;90294;-90
2023/09/19 03:07:56;;;;;;;9.27;2.10;;;;;;;;;;5003941;28;90832;-90
2023/09/19 03:10:32;;;;;;;10.88;2.08;;;;;;;;;;5003251;28;89498;-91
2023/09/19 03:13:10;;;;;;;9.60;2.20;;;;;;;;;;5004107;28;89359;-91
2023/09/19 03:15:50;;;;;;;8.65;2.13;;;;;;;;;;5005246;28;88220;-90
2023/09/19 03:18:28;;;;;;;;;;;;;;;;;;5007303;28;89886;-91
2023/09/19 03:21:01;;;;;;;;;;;;;;;;;;4988894;28;90018;-90
2023/09/19 03:23:50;;;;;;;7.43;1.80;;;;;;;;;;5001464;28;89871;-90
2023/09/19 03:26:21;;;;;;;10.35;1.98;;;;;;;;;;5011216;28;87685;-90
2023/09/19 03:28:56;;;;;;;9.07;1.65;;;;;;;;;;5007231;28;90398;-89
2023/09/19 03:31:30;;;;;;;10.52;1.95;;;;;;;;;;5006690;28;88381;-91
2023/09/19 03:34:12;;;;;;;8.60;1.95;;;;;;;;;;4975348;28;90035;-91
2023/09/19 03:36:55;;;;;;;9.32;1.85;;;;;;;;;;5008121;28;88491;-90
2023/09/19 03:39:38;;;;;;;9.75;1.75;;;;;;;;;;4992003;28;87638;-91
2023/09/19 03:42:17;;;;;;;9.95;1.90;;;;;;;;;;5007124;28;87678;-91
2023/09/19 03:45:04;;;;;;;9.07;1.92;;;;;;;;;;5006408;28;90326;-91
2023/09/19 03:47:46;;;;;;;12.52;2.10;;;;;;;;;;5006474;28;89120;-90
2023/09/19 03:50:20;;;;;;;9.00;1.83;;;;;;;;;;5009250;28;91648;-90
2023/09/19 03:52:48;;;;;;;7.63;2.00;;;;;;;;;;4990563;28;89720;-90
2023/09/19 03:55:17;;;;;;;8.68;2.08;;;;;;;;;;5006147;28;90278;-89
2023/09/19 03:57:50;;;;;;;10.40;1.95;;;;;;;;;;4983350;28;90359;-89
2023/09/19 04:00:26;;;;;;;8.48;1.75;;;;;;;;;;4976739;28;88208;-89
2023/09/19 04:03:05;;;;;;;10.55;1.70;;;;;;;;;;4993037;28;90173;-90
2023/09/19 04:05:39;;;;;;;11.00;1.77;;;;;;;;;;4962948;28;89619;-91
2023/09/19 04:08:08;;;;;;;8.70;2.00;;;;;;;;;;4988429;28;87468;-91
2023/09/19 04:10:41;;;;;;;8.45;1.80;;;;;;;;;;4987798;28;88365;-90
2023/09/19 04:13:15;;;;;;;10.43;2.00;;;;;;;;;;4985512;28;88543;-91
2023/09/19 04:15:46;;;;;;;8.35;2.00;;;;;;;;;;4981900;28;88776;-91
2023/09/19 04:18:14;;;;;;;9.25;2.00;;;;;;;;;;4973668;28;88576;-91
2023/09/19 04:21:01;;;;;;;7.00;1.52;;;;;;;;;;4971779;28;90029;-91
2023/09/19 04:23:39;;;;;;;11.32;2.55;;;;;;;;;;4986529;28;88526;-91
2023/09/19 04:26:25;;;;;;;10.77;1.92;;;;;;;;;;4985224;28;88299;-91
2023/09/19 04:29:12;;;;;;;;;;;;;;;;;;;;;
2023/09/19 04:31:47;;;;;;;8.55;2.22;;;;;;;;;;4987488;28;87980;-90
2023/09/19 04:34:27;;;;;;;11.32;1.90;;;;;;;;;;4988023;28;88140;-89
2023/09/19 04:37:03;;;;;;;7.72;1.83;;;;;;;;;;4988371;28;87715;-89
2023/09/19 04:39:34;;;;;;;10.18;2.10;;;;;;;;;;4985856;28;89676;-91
2023/09/19 04:42:14;;;;;;;11.02;2.33;;;;;;;;;;4987042;28;88375;-91
2023/09/19 04:44:47;;;;;;;8.77;1.92;;;;;;;;;;4986252;28;88587;-91
2023/09/19 04:47:22;;;;;;;10.50;1.95;;;;;;;;;;4982676;28;88634;-91
2023/09/19 04:49:55;;;;;;;7.85;1.77;;;;;;;;;;4979759;28;87839;-91
2023/09/19 04:52:39;;;;;;;8.32;1.60;;;;;;;;;;4982457;28;88213;-91
2023/09/19 04:55:19;;;;;;;10.95;1.90;;;;;;;;;;4976176;28;88333;-92
2023/09/19 04:57:53;;;;;;;7.93;1.88;;;;;;;;;;4987777;28;86883;-90
2023/09/19 05:00:27;;;;;;;11.30;2.00;;;;;;;;;;4985068;28;88762;-90
2023/09/19 05:02:58;;;;;;;9.80;2.17;;;;;;;;;;4975386;28;89635;-90
2023/09/19 05:05:28;;;;;;;8.20;2.10;;;;;;;;;;4981459;28;89726;-92
2023/09/19 05:08:05;;;;;;;8.02;2.03;;;;;;;;;;4974636;28;88094;-92
2023/09/19 05:10:42;;;;;;;9.68;1.80;;;;;;;;;;4982899;28;89656;-90
2023/09/19 05:13:12;;;;;;;10.07;2.17;;;;;;;;;;4987064;28;87921;-88
2023/09/19 05:15:40;;;;;;;9.90;2.10;;;;;;;;;;4986459;28;88601;-89
2023/09/19 05:18:10;;;;;;;8.50;1.80;;;;;;;;;;4986824;28;87999;-88
2023/09/19 05:20:39;;;;;;;8.82;2.00;;;;;;;;;;4989036;28;88437;-89
2023/09/19 05:23:12;;;;;;;11.32;2.30;;;;;;;;;;4982841;28;87425;-89
2023/09/19 05:25:51;;;;;;;11.10;2.30;;;;;;;;;;4979477;28;87801;-90
2023/09/19 05:28:27;;;;;;;8.15;2.28;;;;;;;;;;4981553;28;89695;-90
2023/09/19 05:30:59;;;;;;;9.07;2.08;;;;;;;;;;4979374;28;88461;-89
2023/09/19 05:33:30;;;;;;;8.82;2.13;;;;;;;;;;4985202;28;91096;-90
2023/09/19 05:36:02;;;;;;;7.65;1.70;;;;;;;;;;4986232;28;89230;-89
2023/09/19 05:38:36;;;;;;;6.15;1.70;;;;;;;;;;4982152;28;87935;-90
2023/09/19 05:41:08;;;;;;;9.23;1.98;;;;;;;;;;4984993;28;88264;-88
2023/09/19 05:43:43;;;;;;;10.00;1.98;;;;;;;;;;4986489;28;88223;-90
2023/09/19 05:46:19;;;;;;;8.68;2.30;;;;;;;;;;4965276;28;90386;-92
2023/09/19 05:48:56;;;;;;;8.95;2.17;;;;;;;;;;4982378;28;88846;-91
2023/09/19 05:51:32;;;;;;;9.65;2.30;;;;;;;;;;4984805;28;87689;-89
2023/09/19 05:54:05;;;;;;;11.27;2.40;;;;;;;;;;4981499;28;88250;-91
2023/09/19 05:56:36;;;;;;;8.27;1.95;;;;;;;;;;4971926;28;90737;-92
2023/09/19 05:59:15;;;;;;;8.95;2.00;;;;;;;;;;4981819;28;87618;-91
2023/09/19 06:01:47;;;;;;;10.00;2.10;;;;;;;;;;4975812;28;87921;-93
2023/09/19 06:04:25;;;;;;;11.63;2.35;;;;;;;;;;4981738;28;88022;-91
2023/09/19 06:06:59;;;;;;;11.45;2.28;;;;;;;;;;4978372;28;88069;-93
2023/09/19 06:09:41;;;;;;;12.07;2.30;;;;;;;;;;4988199;28;88240;-92
2023/09/19 06:12:17;;;;;;;9.80;2.20;;;;;;;;;;4986812;28;87644;-93
2023/09/19 06:15:18;;;;;;;10.20;2.30;;;;;;;;;;4990008;28;87383;-92
2023/09/19 06:18:05;;;;;;;8.93;2.00;;;;;;;;;;4989733;28;88160;-92
2023/09/19 06:20:44;;;;;;;11.82;1.98;;;;;;;;;;4979293;28;87774;-92
2023/09/19 06:23:29;;;;;;;8.23;1.95;;;;;;;;;;4974913;28;88668;-92
2023/09/19 06:26:06;;;;;;;;;;;;;;;;;;4973311;28;88158;-91
2023/09/19 06:28:47;;;;;;;9.25;2.05;;;;;;;;;;4980731;28;87704;-93
2023/09/19 06:31:25;;;;;;;7.88;1.98;;;;;;;;;;4985168;28;89393;-88
2023/09/19 06:33:53;;;;;;;8.65;2.20;;;;;;;;;;4984023;28;87759;-87
2023/09/19 06:36:21;;;;;;;8.93;1.83;;;;;;;;;;4983900;28;88034;-89
2023/09/19 06:38:51;;;;;;;8.50;1.95;;;;;;;;;;4965233;28;90596;-87
2023/09/19 06:41:18;;;;;;;10.55;2.30;;;;;;;;;;4977050;28;87366;-89
2023/09/19 06:43:45;;;;;;;9.00;1.95;;;;;;;;;;4986334;28;87816;-88
2023/09/19 06:46:15;;;;;;;8.77;1.80;;;;;;;;;;4985269;28;88884;-89
2023/09/19 06:48:44;;;;;;;10.23;2.13;;;;;;;;;;4984543;28;89021;-89
2023/09/19 06:51:11;;;;;;;8.90;2.10;;;;;;;;;;4977468;28;88764;-89
2023/09/19 06:53:41;;;;;;;10.30;2.00;;;;;;;;;;4980603;28;88995;-86
2023/09/19 06:56:14;;;;;;;10.20;2.10;;;;;;;;;;4968889;28;90743;-86
2023/09/19 06:58:46;;;;;;;8.32;1.55;;;;;;;;;;4967521;28;87740;-86
2023/09/19 07:01:15;;;;;;;10.25;1.95;;;;;;;;;;4954592;28;89197;-85
2023/09/19 07:03:45;;;;;;;10.00;2.25;;;;;;;;;;4982356;28;88076;-86
2023/09/19 07:06:13;;;;;;;12.13;2.45;;;;;;;;;;4981582;28;86987;-87
2023/09/19 07:08:40;;;;;;;13.00;2.72;;;;;;;;;;4980698;28;88035;-89
2023/09/19 07:11:08;;;;;;;14.25;2.75;;;;;;;;;;4972045;28;87966;-90
2023/09/19 07:13:39;;;;;;;11.23;2.20;;;;;;;;;;4981134;28;88887;-90
2023/09/19 07:16:08;;;;;;;10.70;2.70;;;;;;;;;;4980656;28;88061;-87
2023/09/19 07:18:36;;;;;;;10.45;2.33;;;;;;;;;;4972170;28;90921;-87
2023/09/19 07:21:05;;;;;;;10.25;2.30;;;;;;;;;;4975722;28;87989;-88
2023/09/19 07:23:34;;;;;;;10.48;2.08;;;;;;;;;;4971944;28;87958;-87
2023/09/19 07:26:05;;;;;;;10.10;2.35;;;;;;;;;;4977324;28;88223;-89
2023/09/19 07:28:32;;;;;;;9.88;2.22;;;;;;;;;;4964315;28;88084;-87
2023/09/19 07:31:02;;;;;;;11.57;2.40;;;;;;;;;;4982829;28;88262;-88
2023/09/19 07:33:29;;;;;;;12.18;2.58;;;;;;;;;;4971823;28;88149;-88
2023/09/19 07:35:57;;;;;;;13.18;2.38;;;;;;;;;;4980741;28;89975;-88
2023/09/19 07:38:30;;;;;;;13.23;2.30;;;;;;;;;;4979699;28;89071;-89
2023/09/19 07:41:02;;;;;;;9.80;2.38;;;;;;;;;;4981774;28;89315;-87
2023/09/19 07:43:30;;;;;;;12.95;2.55;;;;;;;;;;4964860;28;88159;-87
2023/09/19 07:46:00;;;;;;;12.32;2.33;;;;;;;;;;4979955;28;89463;-86
2023/09/19 07:48:27;;;;;;;10.45;2.25;;;;;;;;;;4983895;28;87868;-87
2023/09/19 07:50:55;;;;;;;12.30;2.60;;;;;;;;;;4979608;28;87929;-87
2023/09/19 07:53:22;;;;;;;11.23;2.42;;;;;;;;;;4983238;28;88917;-87
2023/09/19 07:55:49;;;;;;;11.90;2.35;;;;;;;;;;4979434;28;89230;-87
2023/09/19 07:58:16;;;;;;;13.52;2.40;;;;;;;;;;4981828;28;89974;-88
2023/09/19 08:00:43;;;;;;;9.52;2.10;;;;;;;;;;4978335;28;88686;-88
2023/09/19 08:03:14;;;;;;;11.55;2.22;;;;;;;;;;4979100;28;88313;-86
2023/09/19 08:05:44;;;;;;;14.40;2.35;;;;;;;;;;4984558;28;88168;-86
2023/09/19 08:08:13;;;;;;;;;;;;;;;;;;4984207;28;87985;-87
2023/09/19 08:10:43;;;;;;;12.50;2.58;;;;;;;;;;4984795;28;90354;-86
2023/09/19 08:13:14;;;;;;;13.23;2.35;;;;;;;;;;4983081;28;88414;-87
2023/09/19 08:15:44;;;;;;;12.68;2.40;;;;;;;;;;4984893;28;87837;-88
2023/09/19 08:18:12;;;;;;;11.35;2.35;;;;;;;;;;4982085;28;89379;-87
2023/09/19 08:20:39;;;;;;;13.38;2.28;;;;;;;;;;4977456;28;87410;-87
2023/09/19 08:23:08;;;;;;;12.70;2.50;;;;;;;;;;4976505;28;88059;-85
2023/09/19 08:25:43;;;;;;;13.65;2.50;;;;;;;;;;4985303;28;88125;-89
2023/09/19 08:28:18;;;;;;;14.60;2.45;;;;;;;;;;4972129;28;88869;-90
2023/09/19 08:30:49;;;;;;;10.07;2.28;;;;;;;;;;4960405;28;91225;-90
2023/09/19 08:33:16;;;;;;;13.05;2.40;;;;;;;;;;4967757;28;87608;-89
2023/09/19 08:35:47;;;;;;;12.32;2.45;;;;;;;;;;4967411;28;89236;-91
2023/09/19 08:38:23;;;;;;;11.25;2.55;;;;;;;;;;4984117;28;91108;-90
2023/09/19 08:40:54;;;;;;;11.77;2.45;;;;;;;;;;4997916;28;88386;-88
2023/09/19 08:43:25;;;;;;;14.32;2.75;;;;;;;;;;4976719;28;88186;-90
2023/09/19 08:45:59;;;;;;;12.75;2.60;;;;;;;;;;4969494;28;87217;-89
2023/09/19 08:48:31;;;;;;;;;;;;;;;;;;4984634;28;88232;-90
2023/09/19 08:51:03;;;;;;;14.25;2.63;;;;;;;;;;5000134;28;87979;-90
2023/09/19 08:53:52;;;;;;;10.88;2.30;;;;;;;;;;4965863;28;91628;-91
2023/09/19 08:56:26;;;;;;;14.25;2.65;;;;;;;;;;4973978;28;87672;-92
2023/09/19 08:58:59;;;;;;;13.18;2.55;;;;;;;;;;4982389;28;87854;-91
2023/09/19 09:01:32;;;;;;;10.43;2.50;;;;;;;;;;4978589;28;89022;-92
2023/09/19 09:04:01;;;;;;;16.65;3.13;;;;;;;;;;4969917;28;87703;-92
2023/09/19 09:06:29;;;;;;;13.45;2.70;;;;;;;;;;4978905;28;88554;-89
2023/09/19 09:09:33;;;;;;;12.25;1.83;;;;;;;;;;4976289;28;87964;-92
2023/09/19 09:12:13;;;;;;;11.57;2.20;;;;;;;;;;4980839;28;87428;-91
2023/09/19 09:14:49;;;;;;;12.23;2.10;;;;;;;;;;4981579;28;88325;-92
2023/09/19 09:17:20;;;;;;;10.98;2.22;;;;;;;;;;4980917;28;87966;-91
2023/09/19 09:19:51;;;;;;;10.43;2.22;;;;;;;;;;4969002;28;89914;-92
2023/09/19 09:22:21;;;;;;;11.50;2.00;;;;;;;;;;4967675;28;91551;-91
2023/09/19 09:24:57;;;;;;;12.60;2.17;;;;;;;;;;4968132;28;90172;-90
2023/09/19 09:27:25;;;;;;;11.38;2.17;;;;;;;;;;4986691;28;88762;-90
2023/09/19 09:29:54;;;;;;;8.43;1.85;;;;;;;;;;4971497;28;88070;-88
2023/09/19 09:32:21;;;;;;;11.52;1.90;;;;;;;;;;4977393;28;91871;-90
2023/09/19 09:34:50;;;;;;;14.05;2.70;;;;;;;;;;4983041;28;87979;-89
2023/09/19 09:37:21;;;;;;;10.30;2.30;;;;;;;;;;4971716;28;87542;-90
2023/09/19 09:39:51;;;;;;;11.50;2.40;;;;;;;;;;4966231;28;88134;-90
2023/09/19 09:42:31;;;;;;;14.23;2.28;;;;;;;;;;4979473;28;88390;-91
2023/09/19 09:45:17;;;;;;;8.57;2.10;;;;;;;;;;4960045;28;89372;-90
2023/09/19 09:47:57;;;;;;;10.10;2.00;;;;;;;;;;4958747;28;90622;-90
2023/09/19 09:50:29;;;;;;;8.35;2.22;;;;;;;;;;4991133;28;91151;-90
2023/09/19 09:53:09;;;;;;;9.93;2.08;;;;;;;;;;4976965;28;88743;-90
2023/09/19 09:55:54;;;;;;;10.65;1.98;;;;;;;;;;4973342;28;88817;-89
2023/09/19 09:58:25;;;;;;;10.85;2.10;;;;;;;;;;4980889;28;88175;-87
2023/09/19 10:00:57;;;;;;;11.10;2.20;;;;;;;;;;4981089;28;88636;-90
2023/09/19 10:03:36;;;;;;;10.48;1.98;;;;;;;;;;4984914;28;87505;-90
2023/09/19 10:06:11;;;;;;;10.45;1.90;;;;;;;;;;4971709;28;87695;-90
2023/09/19 10:08:38;;;;;;;9.05;1.73;;;;;;;;;;4977750;28;88003;-89
2023/09/19 10:11:11;;;;;;;;;;;;;;;;;;4983518;28;91471;-89
2023/09/19 10:13:42;;;;;;;11.63;2.13;;;;;;;;;;4969955;28;89433;-88
2023/09/19 10:16:11;;;;;;;9.57;1.80;;;;;;;;;;4961514;28;91124;-89
2023/09/19 10:18:39;;;;;;;13.98;2.25;;;;;;;;;;4965651;28;89652;-89
2023/09/19 10:21:08;;;;;;;12.27;2.28;;;;;;;;;;4966414;28;88002;-89
2023/09/19 10:23:37;;;;;;;11.43;2.15;;;;;;;;;;4959731;28;90236;-88
2023/09/19 10:26:05;;;;;;;11.43;2.15;;;;;;;;;;4976259;28;89480;-89
2023/09/19 10:28:32;;;;;;;11.63;2.10;;;;;;;;;;4983347;28;87283;-89
2023/09/19 10:31:00;;;;;;;11.00;2.25;;;;;;;;;;4969210;28;88637;-89
2023/09/19 10:33:32;;;;;;;8.63;2.03;;;;;;;;;;4976428;28;87515;-91
2023/09/19 10:35:59;;;;;;;9.00;1.90;;;;;;;;;;4988814;28;88518;-89
2023/09/19 10:38:28;;;;;;;9.85;2.25;;;;;;;;;;4977647;28;88233;-91
2023/09/19 10:40:56;;;;;;;8.40;2.30;;;;;;;;;;4975104;28;89070;-89
2023/09/19 10:43:25;;;;;;;9.90;2.03;;;;;;;;;;4967032;28;90291;-90
2023/09/19 10:45:53;;;;;;;8.40;1.90;;;;;;;;;;4969891;28;87795;-90
2023/09/19 10:48:25;;;;;;;9.55;2.05;;;;;;;;;;4949355;28;91032;-89
2023/09/19 10:50:54;;;;;;;;;;;;;;;;;;4970088;28;91070;-91
2023/09/19 10:53:22;;;;;;;9.30;2.00;;;;;;;;;;4972246;28;99771;-89
2023/09/19 10:55:50;;;;;;;8.65;1.90;;;;;;;;;;4984997;28;87882;-88
2023/09/19 10:58:39;;;;;;;9.23;2.05;;;;;;;;;;4973364;28;90221;-90
2023/09/19 11:01:12;;;;;;;9.05;2.00;;;;;;;;;;4984044;28;88348;-90
2023/09/19 11:03:49;;;;;;;8.10;1.90;;;;;;;;;;4983708;28;91465;-89
2023/09/19 11:06:18;;;;;;;9.98;2.10;;;;;;;;;;4980956;28;88026;-94
2023/09/19 11:08:58;;;;;;;9.77;2.15;;;;;;;;;;4974713;28;87968;-86
2023/09/19 11:11:45;;;;;;;9.63;2.00;;;;;;;;;;4984629;28;88344;-89
2023/09/19 11:14:28;;;;;;;10.35;2.67;;;;;;;;;;4955175;28;90726;-93
2023/09/19 11:17:10;;;;;;;10.07;2.10;;;;;;;;;;4973475;28;88216;-96
2023/09/19 11:19:56;;;;;;;8.88;2.00;;;;;;;;;;4963071;28;88621;-90
2023/09/19 11:22:26;;;;;;;6.30;1.83;;;;;;;;;;4978381;28;88475;-90
2023/09/19 11:24:56;;;;;;;7.93;1.92;;;;;;;;;;4963494;28;90836;-89
2023/09/19 11:27:27;;;;;;;11.50;2.25;;;;;;;;;;4980592;28;89793;-91
2023/09/19 11:30:15;;;;;;;9.48;1.83;;;;;;;;;;4964462;28;91946;-92
2023/09/19 11:33:02;;;;;;;7.07;2.00;;;;;;;;;;4971910;28;89984;-90
2023/09/19 11:35:49;;;;;;;8.25;2.10;;;;;;;;;;4983166;28;87608;-91
2023/09/19 11:38:16;;;;;;;9.05;2.10;;;;;;;;;;4965020;28;90853;-89
2023/09/19 11:40:44;;;;;;;9.35;1.77;;;;;;;;;;4985401;28;88461;-91
2023/09/19 11:43:30;;;;;;;8.10;1.90;;;;;;;;;;4986965;28;88139;-91
2023/09/19 11:45:59;;;;;;;11.07;1.60;;;;;;;;;;4963870;28;90281;-91
2023/09/19 11:48:27;;;;;;;6.57;1.60;;;;;;;;;;4978412;28;87650;-91
2023/09/19 11:50:54;;;;;;;8.98;1.88;;;;;;;;;;4985796;28;88178;-92
2023/09/19 11:53:22;;;;;;;6.70;1.50;;;;;;;;;;4966433;28;91795;-90
2023/09/19 11:55:50;;;;;;;9.93;1.73;;;;;;;;;;4995929;28;89440;-90
2023/09/19 11:58:18;;;;;;;8.30;1.52;;;;;;;;;;4968984;28;88896;-93
2023/09/19 12:00:46;;;;;;;6.65;1.58;;;;;;;;;;4972842;28;88926;-93
2023/09/19 12:03:18;;;;;;;5.13;1.40;;;;;;;;;;4985117;28;87698;-92
2023/09/19 12:05:46;;;;;;;8.32;1.73;;;;;;;;;;4989456;28;88696;-91
2023/09/19 12:08:16;;;;;;;6.47;1.55;;;;;;;;;;4986931;28;89438;-91
2023/09/19 12:10:47;;;;;;;5.95;1.30;;;;;;;;;;4988217;28;88129;-93
2023/09/19 12:13:18;;;;;;;7.57;1.55;;;;;;;;;;4967423;28;90506;-91
2023/09/19 12:15:47;;;;;;;5.63;1.40;;;;;;;;;;4972816;28;87807;-90
2023/09/19 12:18:35;;;;;;;7.65;1.40;;;;;;;;;;4972953;28;91430;-89
2023/09/19 12:21:04;;;;;;;6.88;1.40;;;;;;;;;;4985587;28;90595;-94
2023/09/19 12:23:33;;;;;;;3.75;1.17;;;;;;;;;;4981191;28;87623;-94
2023/09/19 12:26:12;;;;;;;6.18;1.45;;;;;;;;;;4964160;28;88321;-95
2023/09/19 12:28:42;;;;;;;5.45;1.20;;;;;;;;;;4990763;28;89165;-93
2023/09/19 12:31:09;;;;;;;6.20;1.50;;;;;;;;;;4982023;28;88588;-94
2023/09/19 12:33:36;;;;;;;7.20;1.30;;;;;;;;;;4986731;28;92061;-96
2023/09/19 12:36:25;;;;;;;6.30;1.38;;;;;;;;;;4974205;28;87879;-94
2023/09/19 12:38:53;;;;;;;5.22;1.20;;;;;;;;;;4986462;28;87637;-95
2023/09/19 12:41:21;;;;;;;;;;;;;;;;;;4980658;28;88215;-90
2023/09/19 12:43:49;;;;;;;6.00;1.25;;;;;;;;;;4990772;28;93031;-90
2023/09/19 12:46:19;;;;;;;;;;;;;;;;;;4993818;28;89359;-92
2023/09/19 12:48:56;;;;;;;6.38;1.10;;;;;;;;;;4982945;28;87641;-92
2023/09/19 12:51:25;;;;;;;5.25;1.63;;;;;;;;;;4993777;28;87389;-91
2023/09/19 12:53:57;;;;;;;7.18;1.50;;;;;;;;;;4982196;28;87738;-91
2023/09/19 12:56:24;;;;;;;5.05;1.50;;;;;;;;;;4980919;28;87471;-92
2023/09/19 12:58:50;;;;;;;5.57;1.40;;;;;;;;;;4985860;28;87687;-89
2023/09/19 13:01:18;;;;;;;3.67;1.20;;;;;;;;;;4987117;28;89365;-91
2023/09/19 13:03:45;;;;;;;7.03;1.27;;;;;;;;;;4975747;28;87648;-92
2023/09/19 13:06:13;;;;;;;4.53;1.30;;;;;;;;;;4983855;28;87679;-91
2023/09/19 13:08:49;;;;;;;5.65;1.67;;;;;;;;;;4969804;28;88581;-92
2023/09/19 13:11:20;;;;;;;7.13;1.23;;;;;;;;;;4970799;28;87596;-91
2023/09/19 13:13:53;;;;;;;4.38;1.27;;;;;;;;;;4990406;28;88210;-92
2023/09/19 13:16:25;;;;;;;5.03;1.20;;;;;;;;;;4987299;28;88263;-92
2023/09/19 13:18:53;;;;;;;4.43;1.30;;;;;;;;;;4971508;28;88277;-91
2023/09/19 13:21:33;;;;;;;4.55;1.45;;;;;;;;;;4979490;28;89199;-91
2023/09/19 13:24:18;;;;;;;6.50;1.30;;;;;;;;;;4985148;28;87963;-91
2023/09/19 13:26:45;;;;;;;6.30;1.40;;;;;;;;;;4974444;28;88302;-89
2023/09/19 13:29:14;;;;;;;6.22;1.30;;;;;;;;;;4966308;28;88298;-88
2023/09/19 13:31:41;;;;;;;6.03;1.40;;;;;;;;;;4956008;28;89615;-85
2023/09/19 13:34:08;;;;;;;4.32;1.38;;;;;;;;;;4979012;28;88468;-84
2023/09/19 13:36:35;;;;;;;4.97;1.35;;;;;;;;;;4980380;28;88347;-85
2023/09/19 13:39:01;;;;;;;4.57;1.30;;;;;;;;;;4984082;28;90866;-86
2023/09/19 13:41:28;;;;;;;5.22;1.35;;;;;;;;;;4962792;28;91115;-86
2023/09/19 13:43:57;;;;;;;6.05;1.35;;;;;;;;;;4949859;28;90006;-86
2023/09/19 13:46:26;;;;;;;4.28;1.13;;;;;;;;;;4975612;28;90213;-85
2023/09/19 13:48:56;;;;;;;5.13;1.20;;;;;;;;;;4965719;28;88521;-85
2023/09/19 13:51:23;;;;;;;6.13;1.05;;;;;;;;;;4979075;28;86964;-89
2023/09/19 13:53:50;;;;;;;3.85;1.10;;;;;;;;;;4983917;28;87883;-88
2023/09/19 13:56:17;;;;;;;3.92;1.20;;;;;;;;;;4968737;28;88925;-89
2023/09/19 13:58:43;;;;;;;6.18;1.42;;;;;;;;;;4963896;28;88690;-87
2023/09/19 14:01:12;;;;;;;2.83;1.00;;;;;;;;;;4979300;28;90625;-87
2023/09/19 14:03:39;;;;;;;7.78;1.67;;;;;;;;;;4983524;28;87673;-84
2023/09/19 14:06:07;;;;;;;7.22;1.30;;;;;;;;;;4963827;28;90865;-84
2023/09/19 14:08:34;;;;;;;5.82;1.48;;;;;;;;;;4965702;28;88735;-84
2023/09/19 14:11:05;;;;;;;5.97;1.50;;;;;;;;;;4983164;28;87633;-84
2023/09/19 14:13:32;;;;;;;4.57;1.10;;;;;;;;;;4983055;28;88427;-85
2023/09/19 14:16:08;;;;;;;5.93;1.27;;;;;;;;;;4974349;28;90437;-84
2023/09/19 14:18:35;;;;;;;4.65;1.30;;;;;;;;;;4973171;28;87778;-84
2023/09/19 14:21:03;;;;;;;6.32;1.23;;;;;;;;;;4970098;28;88800;-84
2023/09/19 14:23:34;;;;;;;5.38;1.13;;;;;;;;;;4974891;28;88319;-84
2023/09/19 14:26:01;;;;;;;5.18;1.40;;;;;;;;;;4982575;28;90839;-84
2023/09/19 14:28:29;;;;;;;4.75;1.30;;;;;;;;;;4975158;28;88136;-84
2023/09/19 14:30:56;;;;;;;4.47;1.42;;;;;;;;;;4960690;28;89646;-84
2023/09/19 14:33:23;;;;;;;5.32;1.20;;;;;;;;;;4971340;28;87869;-86
2023/09/19 14:35:49;;;;;;;4.93;1.08;;;;;;;;;;4982451;28;88098;-85
2023/09/19 14:38:17;;;;;;;5.40;1.20;;;;;;;;;;4975461;28;87743;-85
2023/09/19 14:40:43;;;;;;;5.60;1.40;;;;;;;;;;4982005;28;88060;-85
2023/09/19 14:43:10;;;;;;;5.88;1.40;;;;;;;;;;4980900;28;87692;-85
2023/09/19 14:45:37;;;;;;;4.70;1.30;;;;;;;;;;4974028;28;87890;-85
2023/09/19 14:48:05;;;;;;;;;;;;;;;;;;4984300;28;89566;-85
2023/09/19 14:50:32;;;;;;;6.45;1.30;;;;;;;;;;4976184;28;89863;-86
2023/09/19 14:53:01;;;;;;;;;;;;;;;;;;4964478;28;89749;-86
2023/09/19 14:55:29;;;;;;;6.95;1.80;;;;;;;;;;4967640;28;91152;-85
2023/09/19 14:57:58;;;;;;;6.13;1.45;;;;;;;;;;4967171;28;87936;-86
2023/09/19 15:00:25;;;;;;;6.13;1.58;;;;;;;;;;4963416;28;88048;-85
2023/09/19 15:02:52;;;;;;;4.97;1.50;;;;;;;;;;4968827;28;88740;-86
2023/09/19 15:05:19;;;;;;;5.50;1.83;;;;;;;;;;4979655;28;90922;-84
2023/09/19 15:07:46;;;;;;;6.38;1.65;;;;;;;;;;4976542;28;89812;-88
2023/09/19 15:10:13;;;;;;;8.32;2.03;;;;;;;;;;4962725;28;88111;-87
2023/09/19 15:12:57;;;;;;;7.15;1.65;;;;;;;;;;4968574;28;88354;-91
2023/09/19 15:15:43;;;;;;;6.45;1.80;;;;;;;;;;4975535;28;90096;-91
2023/09/19 15:18:17;;;;;;;6.00;1.73;;;;;;;;;;4987827;28;87617;-91
2023/09/19 15:20:48;;;;;;;5.90;1.58;;;;;;;;;;4982234;28;88126;-88
2023/09/19 15:23:18;;;;;;;6.18;1.40;;;;;;;;;;4974394;28;90402;-89
2023/09/19 15:25:49;;;;;;;5.18;1.80;;;;;;;;;;4982381;28;88099;-90
2023/09/19 15:28:16;;;;;;;5.35;1.80;;;;;;;;;;4985184;28;89022;-89
2023/09/19 15:30:50;;;;;;;7.68;1.60;;;;;;;;;;4982779;28;89679;-89
2023/09/19 15:33:30;;;;;;;6.63;1.70;;;;;;;;;;4963598;28;90249;-89
2023/09/19 15:36:01;;;;;;;7.63;1.88;;;;;;;;;;4950740;28;89952;-86
2023/09/19 15:38:28;;;;;;;5.30;1.85;;;;;;;;;;4978870;28;90252;-87